Cuyahoga County Airport Cleveland US
ICAO: KCGF
IATA: CGF
Category: Medium
Scheduled Services: No

Elevation: 879 ft
TransAlt. 18000 ft.

Airport Communications:
CLEVELAND APP/DEP:125.35
CTAF:118.5
GND/CLNC DEL:121.85
COUNTY TWR:118.5
UNICOM:122.95

KCGF Zoom In..

If you have problems with the map follow the link
https://www.worldairports.se/pages/airport.php?
ICAO=KCGF

Runways:

(A) RW 06 length 5102 ft width 100 ft
---- / hdg 57

(B) RW 24 length 5102 ft width 100 ft
ILS 111.10 / hdg 237

Location; KCGF
Day. 12 / Time. 10.15 Zulu
* Altimeter: 30.59
* Temperature: -08° c. -17.6°f.
* Wind from: 140° Speed 03 kn.
Dewpoint: -11° c.
Visibility: 10 Statute Miles.
Clouds: Clear (automated report).

KCGF 121015Z AUTO 14003KT 10SM CLR M08/M11 A3059 RMK AO2 T10791108


Wind From 140°
Speed 03 kn.

 
 
jpsmedia worldairports.se 2019   terms of use